createdAt,value
2023-04-09T05:04:47.537Z,4.06
2023-04-09T05:09:52.255Z,4.14
2023-04-09T05:15:00.570Z,4.25
2023-04-09T05:20:02.105Z,4.38
2023-04-09T05:25:11.704Z,4.51
2023-04-09T05:30:16.358Z,4.61
2023-04-09T05:35:17.954Z,4.71
2023-04-09T05:40:20.168Z,4.78
2023-04-09T05:45:21.719Z,4.87
2023-04-09T05:50:27.039Z,4.94
2023-04-09T05:55:32.382Z,5.02
2023-04-09T06:00:35.698Z,5.12
2023-04-09T06:05:37.649Z,5.17
2023-04-09T06:10:41.044Z,5.20
2023-04-09T06:15:43.101Z,5.28
2023-04-09T06:20:44.722Z,5.42
2023-04-09T06:25:46.178Z,5.63
2023-04-09T06:30:48.964Z,5.88
2023-04-09T06:35:50.577Z,6.04
2023-04-09T06:40:52.272Z,6.10
2023-04-09T06:45:53.711Z,6.10
2023-04-09T06:50:55.201Z,6.03
2023-04-09T06:55:57.219Z,6.04
2023-04-09T07:00:59.442Z,6.07
2023-04-09T07:06:01.064Z,6.08
2023-04-09T07:11:03.330Z,6.17
2023-04-09T07:16:05.202Z,6.27
2023-04-09T07:21:06.900Z,6.37
2023-04-09T07:26:08.532Z,6.47
2023-04-09T07:31:10.738Z,6.61
2023-04-09T07:36:12.493Z,6.75
2023-04-09T07:41:14.125Z,6.87
2023-04-09T07:46:20.630Z,7.00
2023-04-09T07:51:22.118Z,7.14
2023-04-09T07:56:23.578Z,7.26
2023-04-09T08:01:26.058Z,7.36
2023-04-09T08:06:27.516Z,7.45
2023-04-09T08:11:28.981Z,7.56
2023-04-09T08:16:30.560Z,7.67
2023-04-09T08:21:32.257Z,7.78
2023-04-09T08:26:33.764Z,7.93
2023-04-09T08:31:37.246Z,8.03
2023-04-09T08:36:38.772Z,8.16
2023-04-09T08:41:45.694Z,8.26
2023-04-09T08:46:47.120Z,8.36
2023-04-09T08:51:49.184Z,8.44
2023-04-09T08:56:50.649Z,8.58
2023-04-09T09:02:08.216Z,8.73
2023-04-09T09:07:09.974Z,8.88
2023-04-09T09:12:13.205Z,9.04
2023-04-09T09:17:15.274Z,9.25
2023-04-09T09:22:17.439Z,9.49
2023-04-09T09:27:40.346Z,9.68
2023-04-09T09:32:42.537Z,9.85
2023-04-09T09:37:44.114Z,10.05
2023-04-09T09:42:56.911Z,10.38
2023-04-09T09:47:58.451Z,10.67
2023-04-09T09:53:07.514Z,10.85
2023-04-09T09:58:16.689Z,11.00
2023-04-09T10:03:24.907Z,11.23
2023-04-09T10:08:28.158Z,11.44
2023-04-09T10:13:35.216Z,11.59
2023-04-09T10:18:36.877Z,11.74
2023-04-09T10:23:42.434Z,11.87
2023-04-09T10:28:43.844Z,11.89
2023-04-09T10:33:45.896Z,11.82
2023-04-09T10:38:48.160Z,11.69
2023-04-09T10:43:50.822Z,11.86
2023-04-09T10:49:11.533Z,12.12
2023-04-09T10:54:35.899Z,12.42
2023-04-09T10:59:37.280Z,12.65
2023-04-09T11:05:04.474Z,12.90
2023-04-09T11:10:06.757Z,13.10
2023-04-09T11:15:16.530Z,13.28
2023-04-09T11:20:21.422Z,13.39
2023-04-09T11:25:27.132Z,13.50
2023-04-09T11:30:28.981Z,13.60
2023-04-09T11:35:30.758Z,13.71
2023-04-09T11:40:32.340Z,13.84
2023-04-09T11:45:33.847Z,14.12
2023-04-09T11:50:36.450Z,14.44
2023-04-09T11:55:38.128Z,14.70
2023-04-09T12:00:41.328Z,14.81
2023-04-09T12:05:50.462Z,14.88
2023-04-09T12:10:53.843Z,14.91
2023-04-09T12:15:57.472Z,14.86
2023-04-09T12:21:01.302Z,14.81
2023-04-09T12:26:02.798Z,14.90
2023-04-09T12:31:04.387Z,15.00
2023-04-09T12:36:06.321Z,15.10
2023-04-09T12:41:08.039Z,15.10
2023-04-09T12:46:09.975Z,15.00
2023-04-09T12:51:14.403Z,15.14
2023-04-09T12:56:16.007Z,15.32
2023-04-09T13:01:18.072Z,15.35
2023-04-09T13:06:19.577Z,15.43
2023-04-09T13:11:21.191Z,15.55
2023-04-09T13:16:22.796Z,15.98
2023-04-09T13:21:24.417Z,17.03
2023-04-09T13:26:25.997Z,17.87
2023-04-09T13:31:27.685Z,19.01
2023-04-09T13:36:30.173Z,18.86
2023-04-09T13:41:32.330Z,17.74
2023-04-09T13:46:33.844Z,16.78
2023-04-09T13:51:35.456Z,16.12
2023-04-09T13:56:37.823Z,15.64
2023-04-09T14:01:39.421Z,15.58
2023-04-09T14:06:42.356Z,15.62
2023-04-09T14:11:43.798Z,15.59
2023-04-09T14:16:46.838Z,15.58
2023-04-09T14:21:48.375Z,15.63
2023-04-09T14:26:53.004Z,15.77
2023-04-09T14:31:56.714Z,15.65
2023-04-09T14:36:58.721Z,15.35
2023-04-09T14:42:00.929Z,15.17
2023-04-09T14:47:02.608Z,15.12
2023-04-09T14:52:04.380Z,15.05
2023-04-09T14:57:06.803Z,15.07
2023-04-09T15:02:08.280Z,15.50
2023-04-09T15:07:09.779Z,16.61
2023-04-09T15:12:11.263Z,18.28
2023-04-09T15:17:12.741Z,19.87
2023-04-09T15:22:14.246Z,20.52
2023-04-09T15:27:15.857Z,19.80
2023-04-09T15:32:17.476Z,18.82
2023-04-09T15:37:18.895Z,18.07
2023-04-09T15:42:22.640Z,17.35
2023-04-09T15:47:24.472Z,16.77
2023-04-09T15:52:26.652Z,16.32
2023-04-09T15:57:28.742Z,16.06
2023-04-09T16:02:30.329Z,15.99
2023-04-09T16:07:31.867Z,15.69
2023-04-09T16:12:33.290Z,15.36
2023-04-09T16:17:40.532Z,15.10
2023-04-09T16:22:42.857Z,14.84
2023-04-09T16:27:44.305Z,14.61
2023-04-09T16:32:45.794Z,14.42
2023-04-09T16:37:47.380Z,14.22
2023-04-09T16:42:48.816Z,14.04
2023-04-09T16:47:53.991Z,13.89
2023-04-09T16:52:55.583Z,13.73
2023-04-09T16:57:57.220Z,13.55
2023-04-09T17:02:58.861Z,13.42
2023-04-09T17:08:02.024Z,13.26
2023-04-09T17:13:03.643Z,13.12
2023-04-09T17:18:05.238Z,12.95
2023-04-09T17:23:07.201Z,12.76
2023-04-09T17:28:09.098Z,12.56
2023-04-09T17:33:12.104Z,12.38
2023-04-09T17:38:20.285Z,12.19
2023-04-09T17:43:21.801Z,11.96
2023-04-09T17:48:23.283Z,11.74
2023-04-09T17:53:24.751Z,11.56
2023-04-09T17:58:26.913Z,11.38
2023-04-09T18:03:28.506Z,11.21
2023-04-09T18:08:30.244Z,11.05
2023-04-09T18:13:31.646Z,10.90
2023-04-09T18:18:33.062Z,10.76
2023-04-09T18:23:34.712Z,10.64
2023-04-09T18:28:36.533Z,10.52
2023-04-09T18:33:37.956Z,10.44
2023-04-09T18:38:39.510Z,10.36
2023-04-09T18:43:41.190Z,10.27
2023-04-09T18:48:43.337Z,10.21
2023-04-09T18:53:45.052Z,10.14
2023-04-09T18:58:51.785Z,10.09
2023-04-09T19:03:53.805Z,10.01
2023-04-09T19:08:58.101Z,9.94
2023-04-09T19:13:59.606Z,9.82
2023-04-09T19:19:01.107Z,9.68
2023-04-09T19:24:04.908Z,9.53
2023-04-09T19:29:07.723Z,9.41
2023-04-09T19:34:10.907Z,9.39
2023-04-09T19:39:12.382Z,9.32
2023-04-09T19:44:16.793Z,9.21
2023-04-09T19:49:18.226Z,9.09
2023-04-09T19:54:19.750Z,8.93
2023-04-09T19:59:21.330Z,8.77
2023-04-09T20:04:25.766Z,8.59
2023-04-09T20:09:28.972Z,8.50
2023-04-09T20:14:31.336Z,8.50
2023-04-09T20:19:32.892Z,8.47
2023-04-09T20:24:35.234Z,8.43
2023-04-09T20:29:37.100Z,8.34
2023-04-09T20:34:38.736Z,8.25
2023-04-09T20:39:40.693Z,8.15
2023-04-09T20:44:43.141Z,8.08
2023-04-09T20:49:46.353Z,8.03
2023-04-09T20:54:47.876Z,7.96
2023-04-09T20:59:53.569Z,7.91
2023-04-09T21:04:56.342Z,7.86
2023-04-09T21:09:57.935Z,7.83
2023-04-09T21:15:01.357Z,7.82
2023-04-09T21:20:02.887Z,7.81
2023-04-09T21:25:04.814Z,7.81
2023-04-09T21:30:06.976Z,7.85
2023-04-09T21:35:08.440Z,7.92
2023-04-09T21:40:10.212Z,8.00
2023-04-09T21:45:11.793Z,8.07
2023-04-09T21:50:13.655Z,8.14
2023-04-09T21:55:15.293Z,8.19
